Busch, Arkansas
Current Conditions -  °F | °C
As of 7:57 AM on Thursday 27 Nov 2014 (Local Time) from KROG Reporting Station
Haze Haze  
Wind Chill: 25°   Ceiling: 1200
Heat Index: 25°   Visibility: 6mi
Dew Point: 23°   Wind: 0mph
Humidity: 92%   Direction: NA
Pressure: 30.49"   Gusts: NA
Location:  36.4778°N, 93.7346°W
Report Text: KROG 271357Z 00000KT 6SM BR OVC012 M04/M05 A3049 RMK AO2 SLP338 T10391050
Loading
Personal Weather Stations






























Interactive Weather Map New forecast layout! Learn more

10-Day Weather Forecast

Advertisements
Track Severe Weather on mobile